Time;durP1;ratioP1;P1;durP2;ratioP2;P2;SDS_P1;SDS_P2;PMS_P1;PMS_P2;Temp;Humidity;BMP_temperature;BMP_pressure;BME280_temperature;BME280_humidity;BME280_pressure;Samples;Min_cycle;Max_cycle;Signal;HPM_P1;HPM_P2
2021/09/25 00:01:10;;;;;;;2.55;2.10;;;18.20;78.50;;;;;;5007465;28;20030;-75
2021/09/25 00:03:36;;;;;;;5.03;2.70;;;18.20;78.50;;;;;;5037157;28;20010;-74
2021/09/25 00:06:02;;;;;;;3.90;2.20;;;18.20;78.50;;;;;;5008505;28;20440;-75
2021/09/25 00:08:27;;;;;;;3.47;2.35;;;18.20;78.50;;;;;;5008044;28;20026;-75
2021/09/25 00:10:53;;;;;;;2.85;2.13;;;18.20;78.50;;;;;;5008986;28;20030;-75
2021/09/25 00:13:18;;;;;;;3.35;2.40;;;18.30;78.50;;;;;;5008847;28;20383;-75
2021/09/25 00:15:44;;;;;;;3.65;2.30;;;18.30;78.50;;;;;;5009235;28;20486;-76
2021/09/25 00:18:10;;;;;;;3.15;2.17;;;18.30;78.40;;;;;;5008410;28;20030;-76
2021/09/25 00:20:36;;;;;;;3.97;2.80;;;18.30;78.40;;;;;;5009133;28;20647;-75
2021/09/25 00:23:03;;;;;;;2.75;2.30;;;18.30;78.30;;;;;;5008501;28;20053;-75
2021/09/25 00:25:29;;;;;;;3.17;1.92;;;18.30;78.30;;;;;;5006939;28;20045;-74
2021/09/25 00:27:55;;;;;;;4.50;2.28;;;18.30;78.50;;;;;;5007956;28;20038;-75
2021/09/25 00:30:20;;;;;;;3.53;2.28;;;18.30;78.30;;;;;;5008412;28;20053;-75
2021/09/25 00:32:46;;;;;;;2.83;2.30;;;18.30;78.20;;;;;;5008233;28;20054;-75
2021/09/25 00:35:13;;;;;;;3.65;2.03;;;18.30;78.10;;;;;;5008866;28;20109;-76
2021/09/25 00:37:39;;;;;;;2.47;1.92;;;18.30;78.00;;;;;;5006971;28;20029;-75
2021/09/25 00:40:07;;;;;;;3.60;1.80;;;18.30;77.90;;;;;;5007908;28;20059;-76
2021/09/25 00:42:33;;;;;;;2.17;1.70;;;18.30;77.90;;;;;;5006024;28;20029;-75
2021/09/25 00:44:58;;;;;;;1.65;1.55;;;18.30;77.90;;;;;;5008411;28;20125;-75
2021/09/25 00:47:24;;;;;;;3.17;2.00;;;18.30;77.80;;;;;;5007615;28;20113;-75
2021/09/25 00:49:50;;;;;;;2.67;1.90;;;18.30;77.70;;;;;;5007548;28;20484;-75
2021/09/25 00:52:16;;;;;;;3.63;1.90;;;18.30;77.70;;;;;;5008288;28;20056;-75
2021/09/25 00:54:41;;;;;;;2.22;1.63;;;18.30;77.70;;;;;;5008244;28;20061;-75
2021/09/25 00:57:08;;;;;;;1.35;1.23;;;18.30;77.60;;;;;;5007663;28;20099;-75
2021/09/25 00:59:33;;;;;;;3.75;1.70;;;18.40;77.60;;;;;;5007039;28;20121;-76
2021/09/25 01:01:59;;;;;;;2.50;1.77;;;18.40;77.60;;;;;;5004301;28;20026;-76
2021/09/25 01:04:25;;;;;;;2.60;1.80;;;18.30;77.40;;;;;;5007684;28;20078;-75
2021/09/25 01:06:51;;;;;;;3.40;2.00;;;18.30;77.40;;;;;;5008117;28;20041;-75
2021/09/25 01:09:16;;;;;;;2.83;2.00;;;18.30;77.50;;;;;;5007527;28;20471;-75
2021/09/25 01:11:42;;;;;;;2.67;2.20;;;18.30;77.50;;;;;;5011404;28;20029;-75
2021/09/25 01:14:08;;;;;;;2.13;1.83;;;18.20;77.40;;;;;;5009467;28;20656;-75
2021/09/25 01:16:34;;;;;;;2.78;1.70;;;18.20;77.40;;;;;;5016389;28;20390;-74
2021/09/25 01:19:00;;;;;;;4.00;1.88;;;18.20;77.40;;;;;;5008248;28;20022;-75
2021/09/25 01:21:26;;;;;;;3.58;2.13;;;18.20;77.30;;;;;;5013106;28;20022;-75
2021/09/25 01:23:52;;;;;;;2.20;1.80;;;18.20;77.30;;;;;;5010163;28;20487;-75
2021/09/25 01:26:20;;;;;;;2.47;1.70;;;18.20;77.30;;;;;;5009149;28;20102;-75
2021/09/25 01:28:47;;;;;;;2.85;1.80;;;18.20;77.30;;;;;;5009490;28;20029;-75
2021/09/25 01:31:14;;;;;;;4.50;2.20;;;18.20;77.20;;;;;;5006087;28;20038;-75
2021/09/25 01:33:43;;;;;;;2.60;1.80;;;18.20;77.30;;;;;;5003880;28;20029;-75
2021/09/25 01:36:11;;;;;;;3.50;1.88;;;18.20;77.30;;;;;;5007586;28;20049;-76
2021/09/25 01:38:37;;;;;;;1.67;1.58;;;18.20;77.20;;;;;;5006469;28;20030;-76
2021/09/25 01:41:03;;;;;;;2.50;1.77;;;18.20;77.40;;;;;;5007898;28;20502;-76
2021/09/25 01:43:30;;;;;;;3.08;1.88;;;18.20;77.10;;;;;;5007989;28;20034;-75
2021/09/25 01:45:57;;;;;;;2.67;1.83;;;18.20;77.10;;;;;;5006740;28;20045;-75
2021/09/25 01:48:23;;;;;;;1.85;1.63;;;18.20;77.00;;;;;;5002524;28;20026;-75
2021/09/25 01:50:50;;;;;;;3.25;2.10;;;18.20;76.90;;;;;;5006299;28;20022;-75
2021/09/25 01:53:17;;;;;;;2.95;2.20;;;18.20;77.60;;;;;;5007933;28;20017;-75
2021/09/25 01:55:43;;;;;;;5.15;2.50;;;18.10;77.00;;;;;;5007537;28;20053;-75
2021/09/25 01:58:09;;;;;;;1.95;1.77;;;18.10;77.00;;;;;;5007781;28;20479;-75
2021/09/25 02:00:35;;;;;;;2.75;2.20;;;18.10;77.10;;;;;;5008293;28;20441;-75
2021/09/25 02:03:04;;;;;;;3.20;1.92;;;18.10;77.20;;;;;;5016758;28;20022;-75
2021/09/25 02:05:29;;;;;;;4.95;2.40;;;18.10;77.20;;;;;;5009431;28;20083;-75
2021/09/25 02:07:55;;;;;;;2.60;2.05;;;18.10;77.30;;;;;;5009969;28;20409;-75
2021/09/25 02:10:20;;;;;;;3.13;2.40;;;18.00;77.30;;;;;;5013848;28;20121;-76
2021/09/25 02:12:46;;;;;;;4.95;2.92;;;18.10;77.40;;;;;;5016913;28;20114;-75
2021/09/25 02:15:13;;;;;;;4.45;2.88;;;18.10;77.40;;;;;;5011461;28;20096;-75
2021/09/25 02:17:38;;;;;;;2.97;2.60;;;18.00;77.50;;;;;;5009922;28;20464;-75
2021/09/25 02:20:06;;;;;;;4.40;3.50;;;18.00;77.60;;;;;;5010557;28;20057;-76
2021/09/25 02:22:32;;;;;;;4.70;3.60;;;18.00;77.70;;;;;;5009142;28;20041;-76
2021/09/25 02:24:58;;;;;;;3.80;2.70;;;18.00;77.80;;;;;;5009231;28;20045;-77
2021/09/25 02:27:23;;;;;;;4.60;3.10;;;17.90;77.90;;;;;;5009920;28;20054;-76
2021/09/25 02:29:49;;;;;;;4.20;2.95;;;18.00;78.00;;;;;;5010448;28;20028;-76
2021/09/25 02:32:14;;;;;;;5.13;3.70;;;17.90;78.00;;;;;;5010424;28;20040;-75
2021/09/25 02:34:40;;;;;;;4.70;3.22;;;17.90;78.00;;;;;;5010478;28;20032;-76
2021/09/25 02:37:06;;;;;;;3.95;2.90;;;17.90;78.10;;;;;;5008732;28;20037;-75
2021/09/25 02:39:32;;;;;;;3.40;2.65;;;17.90;78.20;;;;;;5010921;28;20107;-76
2021/09/25 02:41:58;;;;;;;3.47;2.70;;;17.90;78.10;;;;;;5010644;28;20029;-75
2021/09/25 02:44:24;;;;;;;5.68;3.75;;;17.90;78.20;;;;;;5010394;28;20030;-76
2021/09/25 02:46:50;;;;;;;5.07;3.10;;;17.90;78.20;;;;;;5009577;28;20036;-76
2021/09/25 02:49:17;;;;;;;5.75;4.28;;;17.90;78.30;;;;;;5009471;28;20116;-76
2021/09/25 02:51:43;;;;;;;8.07;4.10;;;17.90;78.50;;;;;;5010318;28;20022;-76
2021/09/25 02:54:09;;;;;;;5.10;2.90;;;17.80;78.60;;;;;;5010353;28;20357;-76
2021/09/25 02:56:35;;;;;;;4.03;2.95;;;17.80;78.60;;;;;;5010021;28;20026;-76
2021/09/25 02:59:01;;;;;;;4.85;3.10;;;17.80;78.60;;;;;;5009080;28;20034;-76
2021/09/25 03:01:27;;;;;;;4.65;3.00;;;17.80;78.60;;;;;;5009422;28;20018;-76
2021/09/25 03:03:54;;;;;;;3.53;2.85;;;17.80;78.50;;;;;;5009999;28;20392;-76
2021/09/25 03:06:22;;;;;;;4.57;3.00;;;17.80;78.50;;;;;;5009267;28;20026;-76
2021/09/25 03:08:47;;;;;;;4.25;2.85;;;17.90;78.50;;;;;;5009608;28;20570;-76
2021/09/25 03:11:13;;;;;;;4.15;3.08;;;17.90;78.50;;;;;;5009634;28;20034;-75
2021/09/25 03:13:38;;;;;;;4.40;2.78;;;17.80;78.50;;;;;;5009626;28;20021;-75
2021/09/25 03:16:04;;;;;;;4.88;2.95;;;17.80;78.60;;;;;;5010140;28;20445;-75
2021/09/25 03:18:29;;;;;;;4.57;2.88;;;17.80;78.60;;;;;;5008260;28;20026;-76
2021/09/25 03:20:55;;;;;;;3.90;2.58;;;17.80;78.60;;;;;;5009493;28;20030;-76
2021/09/25 03:23:20;;;;;;;4.50;2.88;;;17.80;78.60;;;;;;5009450;28;20492;-76
2021/09/25 03:25:46;;;;;;;5.10;3.15;;;17.80;78.70;;;;;;5009360;28;20026;-76
2021/09/25 03:28:12;;;;;;;5.35;3.20;;;17.80;78.70;;;;;;5009239;28;20496;-75
2021/09/25 03:30:37;;;;;;;5.45;3.03;;;17.70;78.70;;;;;;5009431;28;20025;-75
2021/09/25 03:33:03;;;;;;;3.65;2.90;;;17.70;78.70;;;;;;5009391;28;20480;-77
2021/09/25 03:35:29;;;;;;;5.57;3.88;;;17.70;78.70;;;;;;5008774;28;20052;-76
2021/09/25 03:37:55;;;;;;;4.63;3.20;;;17.70;78.70;;;;;;5009318;28;20392;-75
2021/09/25 03:40:20;;;;;;;5.45;3.22;;;17.70;78.80;;;;;;5009372;28;20036;-75
2021/09/25 03:42:47;;;;;;;5.93;3.75;;;17.70;78.90;;;;;;5009304;28;20096;-76
2021/09/25 03:45:13;;;;;;;5.30;3.28;;;17.70;78.80;;;;;;5009673;28;20030;-75
2021/09/25 03:47:38;;;;;;;5.75;4.20;;;17.70;78.80;;;;;;5008185;28;20014;-76
2021/09/25 03:50:05;;;;;;;7.63;3.83;;;17.70;78.80;;;;;;5008737;28;20026;-76
2021/09/25 03:52:30;;;;;;;4.75;3.22;;;17.70;78.90;;;;;;5008559;28;20095;-75
2021/09/25 03:54:56;;;;;;;7.32;4.22;;;17.70;78.90;;;;;;5009274;28;20531;-75
2021/09/25 03:57:21;;;;;;;5.30;3.60;;;17.70;79.00;;;;;;5009086;28;20430;-76
2021/09/25 03:59:47;;;;;;;4.03;3.00;;;17.60;79.00;;;;;;5009193;28;20022;-76
2021/09/25 04:02:13;;;;;;;4.50;3.10;;;17.60;79.00;;;;;;5004681;28;20099;-75
2021/09/25 04:04:38;;;;;;;5.90;3.97;;;17.70;79.00;;;;;;5008325;28;20152;-75
2021/09/25 04:07:04;;;;;;;6.82;4.55;;;17.60;79.20;;;;;;5008753;28;20022;-75
2021/09/25 04:09:29;;;;;;;6.65;4.20;;;17.70;79.00;;;;;;5009599;28;20705;-76
2021/09/25 04:11:55;;;;;;;6.03;4.20;;;17.60;79.00;;;;;;5009208;28;20030;-75
2021/09/25 04:14:21;;;;;;;7.30;4.93;;;17.50;79.10;;;;;;5008501;28;20014;-75
2021/09/25 04:16:47;;;;;;;7.07;4.22;;;17.60;79.20;;;;;;5008527;28;20029;-75
2021/09/25 04:19:13;;;;;;;5.82;3.85;;;17.60;79.30;;;;;;5008552;28;20075;-75
2021/09/25 04:21:39;;;;;;;5.10;3.45;;;17.60;79.30;;;;;;4996310;28;20439;-76
2021/09/25 04:24:05;;;;;;;4.75;3.50;;;17.60;79.20;;;;;;5008145;28;20033;-76
2021/09/25 04:26:30;;;;;;;8.65;5.50;;;17.60;79.10;;;;;;5008892;28;20048;-75
2021/09/25 04:28:57;;;;;;;6.07;4.60;;;17.60;79.20;;;;;;5008130;28;20121;-76
2021/09/25 04:31:24;;;;;;;6.28;4.18;;;17.60;79.30;;;;;;5006867;28;20022;-75
2021/09/25 04:33:49;;;;;;;8.07;5.00;;;17.60;79.30;;;;;;5007046;28;20093;-76
2021/09/25 04:36:15;;;;;;;5.50;3.35;;;17.60;79.30;;;;;;5008498;28;20025;-76
2021/09/25 04:38:40;;;;;;;10.10;6.38;;;17.50;79.30;;;;;;5007771;28;20079;-76
2021/09/25 04:41:06;;;;;;;7.45;5.40;;;17.50;79.30;;;;;;5008837;28;20026;-76
2021/09/25 04:43:32;;;;;;;6.63;4.72;;;17.50;79.50;;;;;;5007846;28;20026;-76
2021/09/25 04:45:58;;;;;;;8.65;5.88;;;17.40;79.60;;;;;;5022362;28;20033;-76
2021/09/25 04:48:23;;;;;;;6.47;4.78;;;17.40;79.60;;;;;;5007474;28;20524;-76
2021/09/25 04:50:49;;;;;;;10.57;7.40;;;17.40;79.70;;;;;;5002748;28;20602;-76
2021/09/25 04:53:15;;;;;;;6.70;4.65;;;17.40;80.00;;;;;;5003497;28;20033;-76
2021/09/25 04:55:43;;;;;;;6.93;4.38;;;17.30;80.10;;;;;;5014232;28;20026;-76
2021/09/25 04:58:09;;;;;;;7.47;5.38;;;17.30;80.00;;;;;;5009501;28;20100;-76
2021/09/25 05:00:35;;;;;;;5.57;3.75;;;17.30;80.10;;;;;;5004292;28;20067;-76
2021/09/25 05:03:00;;;;;;;5.53;3.67;;;17.30;80.10;;;;;;5014769;28;20034;-76
2021/09/25 05:05:26;;;;;;;6.00;4.75;;;17.40;80.00;;;;;;5029722;28;20041;-75
2021/09/25 05:07:51;;;;;;;6.38;4.20;;;17.40;80.10;;;;;;5013599;28;20475;-76
2021/09/25 05:10:17;;;;;;;7.78;5.68;;;17.40;80.00;;;;;;5003187;28;20030;-76
2021/09/25 05:12:44;;;;;;;7.97;5.63;;;17.40;80.00;;;;;;5006904;28;20060;-76
2021/09/25 05:15:10;;;;;;;9.48;6.68;;;17.30;80.10;;;;;;5007667;28;20065;-76
2021/09/25 05:17:36;;;;;;;7.25;4.53;;;17.30;80.20;;;;;;5003153;28;20024;-76
2021/09/25 05:20:03;;;;;;;5.63;3.95;;;17.30;80.30;;;;;;5004040;28;20034;-76
2021/09/25 05:22:29;;;;;;;7.55;5.32;;;17.30;80.30;;;;;;5003922;28;20440;-76
2021/09/25 05:24:54;;;;;;;7.60;5.35;;;17.30;80.20;;;;;;5005913;28;20030;-75
2021/09/25 05:27:20;;;;;;;6.93;4.60;;;17.30;80.20;;;;;;5026015;28;20035;-75
2021/09/25 05:29:46;;;;;;;8.88;5.72;;;17.30;80.20;;;;;;5022886;28;20018;-75
2021/09/25 05:32:11;;;;;;;7.03;4.40;;;17.30;80.30;;;;;;5015058;28;20507;-75
2021/09/25 05:34:36;;;;;;;6.30;4.32;;;17.30;80.30;;;;;;5010183;28;20026;-76
2021/09/25 05:37:04;;;;;;;6.60;4.50;;;17.30;80.20;;;;;;5011035;28;20030;-76
2021/09/25 05:39:30;;;;;;;6.97;4.00;;;17.30;80.20;;;;;;5011007;28;20108;-75
2021/09/25 05:41:56;;;;;;;6.32;4.70;;;17.40;80.20;;;;;;5010957;28;20026;-75
2021/09/25 05:44:22;;;;;;;7.32;4.53;;;17.40;80.20;;;;;;5011373;28;20500;-75
2021/09/25 05:46:47;;;;;;;4.50;3.53;;;17.40;80.20;;;;;;5011317;28;20022;-75
2021/09/25 05:49:13;;;;;;;5.35;3.53;;;17.40;80.10;;;;;;5011009;28;20026;-75
2021/09/25 05:51:39;;;;;;;7.85;5.10;;;17.40;80.70;;;;;;5010924;28;20026;-75
2021/09/25 05:54:04;;;;;;;5.80;4.10;;;17.40;80.00;;;;;;5013348;28;20093;-75
2021/09/25 05:56:30;;;;;;;6.45;4.55;;;17.40;80.10;;;;;;5011042;28;20513;-74
2021/09/25 05:58:55;;;;;;;6.15;4.05;;;17.40;80.10;;;;;;5009766;28;20483;-75
2021/09/25 06:01:21;;;;;;;6.00;3.85;;;17.30;80.10;;;;;;5010455;28;20107;-75
2021/09/25 06:03:46;;;;;;;5.30;3.28;;;17.30;80.10;;;;;;5004781;28;20113;-74
2021/09/25 06:06:12;;;;;;;5.05;3.75;;;17.40;80.10;;;;;;5023228;28;20142;-75
2021/09/25 06:08:37;;;;;;;6.28;3.67;;;17.40;80.00;;;;;;5017764;28;20444;-75
2021/09/25 06:11:03;;;;;;;5.65;3.70;;;17.40;79.90;;;;;;5010924;28;20509;-75
2021/09/25 06:13:28;;;;;;;5.28;3.60;;;17.40;79.90;;;;;;5010967;28;20030;-75
2021/09/25 06:15:54;;;;;;;6.15;4.03;;;17.40;79.90;;;;;;5010177;28;20025;-74
2021/09/25 06:18:19;;;;;;;4.40;3.30;;;17.50;79.80;;;;;;5010352;28;20014;-75
2021/09/25 06:20:45;;;;;;;5.63;3.92;;;17.50;79.80;;;;;;5009667;28;20030;-75
2021/09/25 06:23:10;;;;;;;5.15;3.60;;;17.50;79.70;;;;;;5010037;28;20030;-75
2021/09/25 06:25:36;;;;;;;6.18;4.35;;;17.40;79.80;;;;;;5009508;28;20076;-75
2021/09/25 06:28:02;;;;;;;5.00;3.40;;;17.40;79.90;;;;;;5008695;28;20128;-75
2021/09/25 06:30:28;;;;;;;5.05;3.15;;;17.40;80.00;;;;;;5010128;28;20053;-75
2021/09/25 06:32:53;;;;;;;4.50;3.00;;;17.50;80.00;;;;;;5010509;28;20468;-75
2021/09/25 06:35:19;;;;;;;6.50;4.35;;;17.50;79.90;;;;;;5010790;28;20490;-75
2021/09/25 06:37:44;;;;;;;6.43;4.40;;;17.40;79.90;;;;;;5009517;28;20039;-75
2021/09/25 06:40:11;;;;;;;6.53;5.03;;;17.40;80.00;;;;;;5010177;28;20482;-75
2021/09/25 06:42:37;;;;;;;6.93;3.95;;;17.40;80.10;;;;;;5010797;28;20038;-74
2021/09/25 06:45:04;;;;;;;7.75;4.55;;;17.40;80.20;;;;;;5009085;28;20531;-74
2021/09/25 06:47:30;;;;;;;9.00;5.22;;;17.40;80.10;;;;;;5009722;28;20121;-74
2021/09/25 06:49:55;;;;;;;5.35;3.85;;;17.40;80.10;;;;;;5010321;28;20120;-75
2021/09/25 06:52:21;;;;;;;4.82;3.50;;;17.40;80.10;;;;;;5011152;28;20104;-75
2021/09/25 06:54:46;;;;;;;3.90;3.15;;;17.50;80.00;;;;;;5010160;28;20388;-75
2021/09/25 06:57:12;;;;;;;6.15;3.92;;;17.50;79.90;;;;;;5009122;28;20077;-75
2021/09/25 06:59:38;;;;;;;5.55;3.92;;;17.50;79.90;;;;;;5010046;28;20025;-75
2021/09/25 07:02:04;;;;;;;5.40;3.70;;;17.60;79.90;;;;;;5010387;28;20042;-75
2021/09/25 07:04:30;;;;;;;4.75;3.55;;;17.60;79.80;;;;;;5010569;28;20428;-75
2021/09/25 07:06:56;;;;;;;5.35;3.38;;;17.60;79.80;;;;;;5009661;28;20383;-75
2021/09/25 07:09:21;;;;;;;6.70;3.80;;;17.70;80.40;;;;;;5010339;28;20030;-74
2021/09/25 07:11:47;;;;;;;5.18;3.53;;;17.70;79.70;;;;;;5009557;28;20437;-74
2021/09/25 07:14:12;;;;;;;6.10;3.88;;;17.70;79.60;;;;;;5010465;28;20026;-75
2021/09/25 07:16:38;;;;;;;5.50;3.80;;;17.80;79.50;;;;;;5010629;28;20055;-75
2021/09/25 07:19:06;;;;;;;5.95;3.28;;;17.90;79.50;;;;;;5010136;28;20018;-75
2021/09/25 07:21:32;;;;;;;7.32;4.70;;;17.90;79.40;;;;;;5010496;28;20109;-75
2021/09/25 07:23:58;;;;;;;3.50;2.90;;;17.90;79.20;;;;;;5008740;28;20140;-75
2021/09/25 07:26:23;;;;;;;8.13;5.18;;;17.90;79.30;;;;;;5009427;28;20488;-75
2021/09/25 07:28:49;;;;;;;6.57;3.65;;;17.90;79.30;;;;;;5009128;28;20484;-75
2021/09/25 07:31:15;;;;;;;8.65;5.25;;;17.90;79.40;;;;;;5003852;28;20045;-74
2021/09/25 07:33:41;;;;;;;5.53;3.90;;;17.90;79.40;;;;;;4996484;28;20015;-74
2021/09/25 07:36:07;;;;;;;6.03;4.50;;;17.90;79.40;;;;;;4994034;28;20026;-75
2021/09/25 07:38:33;;;;;;;7.60;5.93;;;17.90;79.40;;;;;;4993069;28;20477;-74
2021/09/25 07:40:59;;;;;;;8.32;5.60;;;17.90;79.50;;;;;;4990715;28;20021;-79
2021/09/25 07:43:25;;;;;;;8.70;6.18;;;17.80;79.50;;;;;;4997853;28;20120;-75
2021/09/25 07:45:51;;;;;;;7.22;5.50;;;17.80;79.60;;;;;;5010577;28;20041;-75
2021/09/25 07:48:17;;;;;;;7.43;4.65;;;17.80;79.80;;;;;;5008702;28;20053;-75
2021/09/25 07:50:42;;;;;;;9.43;6.03;;;17.80;79.80;;;;;;5063337;28;20432;-75
2021/09/25 07:53:08;;;;;;;5.40;4.22;;;17.80;79.80;;;;;;5113372;28;20019;-75
2021/09/25 07:55:34;;;;;;;7.40;5.22;;;17.80;79.90;;;;;;5112924;28;20024;-75
2021/09/25 07:58:00;;;;;;;9.13;5.07;;;17.80;79.80;;;;;;5054809;28;20033;-80
2021/09/25 08:00:26;;;;;;;5.88;4.07;;;17.90;79.80;;;;;;5009806;28;20030;-79
2021/09/25 08:02:52;;;;;;;5.03;3.58;;;17.90;79.70;;;;;;5009791;28;20091;-80
2021/09/25 08:05:18;;;;;;;6.22;4.40;;;18.00;79.70;;;;;;5009338;28;20429;-80
2021/09/25 08:07:44;;;;;;;7.03;4.30;;;18.10;79.50;;;;;;5006425;28;20030;-79
2021/09/25 08:10:11;;;;;;;7.22;5.10;;;18.10;79.50;;;;;;5011084;28;20013;-80
2021/09/25 08:12:37;;;;;;;7.60;4.38;;;18.10;79.50;;;;;;5059794;28;20033;-79
2021/09/25 08:15:04;;;;;;;7.45;5.28;;;18.10;79.50;;;;;;5015057;28;20066;-80
2021/09/25 08:17:30;;;;;;;10.00;6.18;;;18.20;79.30;;;;;;5062418;28;20053;-80
2021/09/25 08:19:55;;;;;;;9.50;5.68;;;18.20;79.30;;;;;;5008709;28;20557;-79
2021/09/25 08:22:21;;;;;;;6.57;4.78;;;18.20;79.30;;;;;;5021656;28;20364;-80
2021/09/25 08:24:47;;;;;;;6.43;4.97;;;18.20;79.30;;;;;;5014085;28;20038;-79
2021/09/25 08:27:13;;;;;;;9.20;5.47;;;18.20;79.30;;;;;;5004619;28;20506;-78
2021/09/25 08:29:38;;;;;;;9.80;6.22;;;18.20;79.30;;;;;;5014009;28;20061;-80
2021/09/25 08:32:06;;;;;;;7.43;5.40;;;18.20;79.30;;;;;;5026909;28;20032;-78
2021/09/25 08:34:31;;;;;;;5.57;4.30;;;18.20;79.30;;;;;;5009244;28;20482;-80
2021/09/25 08:36:57;;;;;;;6.47;4.78;;;18.30;79.30;;;;;;5037815;28;20045;-81
2021/09/25 08:39:23;;;;;;;6.30;4.60;;;18.30;79.30;;;;;;5014193;28;20082;-81
2021/09/25 08:41:52;;;;;;;8.50;6.03;;;18.30;79.20;;;;;;5011531;28;20106;-81
2021/09/25 08:44:20;;;;;;;7.40;4.65;;;18.30;79.10;;;;;;5014898;28;20124;-81
2021/09/25 08:46:47;;;;;;;8.57;5.30;;;18.40;79.10;;;;;;5016320;28;20044;-80
2021/09/25 08:49:13;;;;;;;6.90;4.85;;;18.40;79.00;;;;;;5008329;28;20047;-81
2021/09/25 08:51:38;;;;;;;8.38;6.20;;;18.40;79.00;;;;;;5016339;28;20026;-81
2021/09/25 08:54:06;;;;;;;6.40;4.60;;;18.40;78.90;;;;;;5024412;28;20034;-81
2021/09/25 08:56:32;;;;;;;7.00;4.10;;;18.40;78.90;;;;;;5020600;28;20101;-81
2021/09/25 08:58:58;;;;;;;6.40;4.25;;;18.40;78.90;;;;;;5095145;28;20046;-81
2021/09/25 09:01:28;;;;;;;9.48;6.10;;;18.50;78.80;;;;;;5046991;28;20026;-81
2021/09/25 09:03:55;;;;;;;6.80;4.80;;;18.50;78.70;;;;;;4998661;28;20049;-81
2021/09/25 09:06:34;;;;;;;9.27;6.60;;;18.40;78.80;;;;;;5020526;28;20120;-81
2021/09/25 09:09:03;;;;;;;6.35;5.35;;;18.50;78.90;;;;;;5047400;28;20105;-81
2021/09/25 09:11:28;;;;;;;8.88;6.28;;;18.50;79.00;;;;;;5008711;28;20471;-81
2021/09/25 09:13:58;;;;;;;9.10;6.38;;;18.50;78.90;;;;;;5008694;28;20113;-82
2021/09/25 09:16:24;;;;;;;10.45;7.15;;;18.50;78.90;;;;;;5008779;28;20072;-82
2021/09/25 09:18:51;;;;;;;7.78;5.53;;;18.40;79.00;;;;;;5008268;28;20030;-82
2021/09/25 09:21:22;;;;;;;7.38;4.75;;;18.40;79.10;;;;;;5008663;28;20108;-82
2021/09/25 09:23:54;;;;;;;9.38;5.80;;;18.50;79.10;;;;;;5008769;28;20117;-82
2021/09/25 09:26:22;;;;;;;6.55;4.10;;;18.50;79.00;;;;;;5004148;28;20034;-82
2021/09/25 09:28:50;;;;;;;7.05;4.40;;;18.60;78.90;;;;;;5060943;28;20060;-81
2021/09/25 09:31:16;;;;;;;7.53;4.53;;;18.70;78.70;;;;;;5111832;28;20080;-82
2021/09/25 09:33:51;;;;;;;4.80;3.65;;;18.80;78.60;;;;;;5111799;28;20030;-82
2021/09/25 09:36:27;;;;;;;6.60;4.82;;;18.90;78.50;;;;;;5110546;28;20019;-82
2021/09/25 09:39:15;;;;;;;6.28;4.80;;;18.90;78.30;;;;;;5111258;28;20047;-82
2021/09/25 09:41:52;;;;;;;8.32;5.57;;;18.90;78.20;;;;;;5110462;28;20380;-82
2021/09/25 09:44:21;;;;;;;5.80;4.30;;;19.00;78.10;;;;;;5105745;28;20028;-81
2021/09/25 09:46:52;;;;;;;6.57;4.18;;;19.00;78.00;;;;;;5010789;28;20036;-81
2021/09/25 09:49:20;;;;;;;7.25;5.07;;;19.00;78.10;;;;;;5098542;28;20077;-82
2021/09/25 09:51:54;;;;;;;5.78;3.78;;;19.10;78.10;;;;;;5020731;28;20017;-81
2021/09/25 09:54:31;;;;;;;7.93;5.47;;;19.10;78.00;;;;;;5027562;28;20022;-82
2021/09/25 09:57:06;;;;;;;7.30;5.47;;;19.10;77.90;;;;;;5090239;28;20114;-82
2021/09/25 09:59:31;;;;;;;9.05;6.60;;;19.10;77.90;;;;;;5041874;28;20069;-82
2021/09/25 10:01:57;;;;;;;5.25;4.15;;;19.10;77.80;;;;;;5082955;28;20021;-81
2021/09/25 10:04:22;;;;;;;7.45;5.20;;;19.10;77.70;;;;;;5015817;28;20029;-82
2021/09/25 10:06:51;;;;;;;7.15;5.30;;;19.20;77.70;;;;;;5085093;28;20046;-81
2021/09/25 10:09:18;;;;;;;6.05;3.97;;;19.20;77.70;;;;;;5040382;28;20041;-81
2021/09/25 10:11:47;;;;;;;10.02;6.55;;;19.30;77.70;;;;;;5011030;28;20048;-82
2021/09/25 10:14:17;;;;;;;9.10;6.68;;;19.30;77.60;;;;;;5009775;28;20502;-81
2021/09/25 10:16:43;;;;;;;10.63;6.97;;;19.30;77.50;;;;;;5007914;28;20018;-80
2021/09/25 10:19:11;;;;;;;7.68;4.78;;;19.20;77.60;;;;;;5007550;28;20384;-81
2021/09/25 10:21:37;;;;;;;7.07;4.65;;;19.30;77.50;;;;;;5009957;28;20018;-81
2021/09/25 10:24:18;;;;;;;12.57;7.50;;;19.40;77.40;;;;;;5011329;28;20101;-81
2021/09/25 10:26:45;;;;;;;9.00;6.60;;;19.50;77.00;;;;;;5010438;28;20045;-81
2021/09/25 10:29:17;;;;;;;9.52;6.53;;;19.50;77.00;;;;;;5010269;28;20022;-81
2021/09/25 10:31:43;;;;;;;12.05;7.88;;;19.50;76.90;;;;;;5011076;28;20067;-80
2021/09/25 10:34:18;;;;;;;11.82;7.25;;;19.50;76.80;;;;;;5010992;28;20022;-81
2021/09/25 10:36:50;;;;;;;7.88;4.85;;;19.60;76.90;;;;;;5010737;28;20403;-81
2021/09/25 10:39:24;;;;;;;7.53;4.90;;;19.60;76.90;;;;;;5014092;28;20078;-81
2021/09/25 10:42:06;;;;;;;6.47;4.05;;;19.70;76.80;;;;;;5035143;28;20601;-81
2021/09/25 10:44:33;;;;;;;14.32;9.30;;;19.80;76.70;;;;;;5077986;28;20095;-81
2021/09/25 10:47:17;;;;;;;9.85;6.80;;;19.80;76.40;;;;;;5008245;28;20034;-80
2021/09/25 10:49:50;;;;;;;8.48;6.03;;;19.80;76.50;;;;;;5010599;28;20033;-81
2021/09/25 10:52:19;;;;;;;10.68;7.03;;;19.90;76.40;;;;;;5010803;28;20026;-81
2021/09/25 10:54:45;;;;;;;9.90;7.20;;;20.00;76.20;;;;;;5009806;28;20109;-81
2021/09/25 10:57:18;;;;;;;8.43;5.70;;;20.00;76.00;;;;;;5010867;28;20033;-81
2021/09/25 11:00:19;;;;;;;8.20;5.45;;;20.10;76.00;;;;;;5010090;28;20025;-81
2021/09/25 11:02:45;;;;;;;9.52;5.07;;;20.20;75.90;;;;;;5011231;28;20483;-81
2021/09/25 11:06:00;;;;;;;9.02;5.32;;;20.30;75.60;;;;;;5010573;28;20121;-81
2021/09/25 11:08:33;;;;;;;9.43;6.88;;;20.40;75.40;;;;;;5010103;28;20476;-81
2021/09/25 11:11:12;;;;;;;8.25;5.00;;;20.40;75.20;;;;;;5010559;28;20095;-81
2021/09/25 11:14:03;;;;;;;10.27;6.68;;;20.50;75.20;;;;;;5010662;28;20018;-80
2021/09/25 11:16:53;;;;;;;10.77;7.25;;;20.40;75.00;;;;;;5010856;28;20109;-81
2021/09/25 11:19:21;;;;;;;12.73;7.72;;;20.40;75.10;;;;;;5010448;28;20018;-81
2021/09/25 11:22:00;;;;;;;13.80;10.05;;;20.30;75.00;;;;;;5010478;28;20026;-81
2021/09/25 11:24:49;;;;;;;14.82;9.07;;;20.30;74.60;;;;;;5010288;28;20475;-81
2021/09/25 11:27:30;;;;;;;13.20;9.63;;;20.30;74.80;;;;;;5009547;28;20112;-81
2021/09/25 11:30:19;;;;;;;12.63;8.00;;;20.30;75.50;;;;;;5010582;28;20057;-81
2021/09/25 11:32:47;;;;;;;12.07;8.15;;;20.30;74.80;;;;;;5010109;28;20060;-81
2021/09/25 11:35:17;;;;;;;12.32;7.60;;;20.30;74.70;;;;;;5010450;28;20025;-81
2021/09/25 11:38:13;;;;;;;8.68;5.97;;;20.40;74.70;;;;;;5008592;28;20033;-81
2021/09/25 11:40:45;;;;;;;6.70;4.85;;;20.50;74.70;;;;;;5007940;28;20049;-81
2021/09/25 11:43:13;;;;;;;9.13;6.13;;;20.70;74.60;;;;;;5010060;28;20042;-81
2021/09/25 11:46:03;;;;;;;16.90;11.27;;;20.70;74.30;;;;;;5010261;28;20030;-81
2021/09/25 11:48:29;;;;;;;11.18;7.43;;;20.70;74.10;;;;;;4999057;28;20034;-80
2021/09/25 11:50:56;;;;;;;9.55;6.97;;;20.70;74.20;;;;;;5004656;28;20034;-81
2021/09/25 11:53:24;;;;;;;7.13;4.97;;;20.80;74.10;;;;;;5028990;28;20030;-81
2021/09/25 11:55:51;;;;;;;8.00;5.80;;;20.90;74.10;;;;;;5015477;28;20054;-81
2021/09/25 11:58:18;;;;;;;10.48;8.35;;;21.00;73.90;;;;;;5069785;28;20028;-80
2021/09/25 12:00:48;;;;;;;9.68;7.05;;;21.10;73.70;;;;;;5113095;28;20028;-81
2021/09/25 12:03:16;;;;;;;13.80;9.93;;;21.10;73.60;;;;;;5043376;28;20049;-81
2021/09/25 12:05:42;;;;;;;11.02;8.48;;;21.00;73.40;;;;;;5085357;28;20638;-81
2021/09/25 12:08:10;;;;;;;9.77;6.60;;;21.00;73.70;;;;;;5006222;28;20100;-81
2021/09/25 12:10:39;;;;;;;11.32;8.60;;;21.00;73.50;;;;;;5082058;28;20028;-81
2021/09/25 12:13:11;;;;;;;11.75;7.32;;;21.10;73.50;;;;;;5043469;28;20109;-81
2021/09/25 12:15:40;;;;;;;11.43;7.13;;;21.20;73.40;;;;;;5093834;28;20075;-81
2021/09/25 12:18:19;;;;;;;9.50;6.72;;;21.30;73.30;;;;;;5053260;28;20012;-81
2021/09/25 12:20:57;;;;;;;12.13;9.00;;;21.40;73.20;;;;;;4989900;28;20095;-81
2021/09/25 12:23:52;;;;;;;11.48;7.72;;;21.40;72.90;;;;;;4989930;28;20026;-81
2021/09/25 12:26:20;;;;;;;15.95;11.73;;;21.40;72.90;;;;;;4988836;28;20383;-81
2021/09/25 12:28:51;;;;;;;16.60;11.82;;;21.40;72.60;;;;;;4989360;28;20460;-81
2021/09/25 12:31:26;;;;;;;10.90;8.03;;;21.30;72.70;;;;;;4988601;28;20439;-81
2021/09/25 12:34:12;;;;;;;12.43;8.20;;;21.30;72.90;;;;;;4989684;28;20022;-82
2021/09/25 12:36:40;;;;;;;12.23;9.75;;;21.30;72.80;;;;;;4989733;28;20109;-82
2021/09/25 12:39:16;;;;;;;10.82;6.53;;;21.30;72.60;;;;;;4989543;28;20030;-81
2021/09/25 12:41:52;;;;;;;8.45;6.15;;;21.40;72.70;;;;;;4989925;28;20065;-82
2021/09/25 12:44:20;;;;;;;10.18;7.35;;;21.40;72.70;;;;;;4989095;28;20036;-81
2021/09/25 12:46:50;;;;;;;8.27;5.90;;;21.50;72.50;;;;;;4989633;28;20045;-81
2021/09/25 12:49:17;;;;;;;11.00;7.53;;;21.60;72.50;;;;;;4989569;28;20033;-82